Time;durP1;ratioP1;P1;durP2;ratioP2;P2;SDS_P1;SDS_P2;PMS_P1;PMS_P2;Temp;Humidity;BMP_temperature;BMP_pressure;BME280_temperature;BME280_humidity;BME280_pressure;Samples;Min_cycle;Max_cycle;Signal;HPM_P1;HPM_P2
2023/10/20 00:02:20;;;;;;;21.77;12.77;;;;;;;-143.21;75.72;72209.00;5068346;28;20281;-79
2023/10/20 00:04:46;;;;;;;20.10;13.63;;;;;;;-143.21;77.29;72216.94;5066089;28;20202;-80
2023/10/20 00:07:15;;;;;;;20.30;13.60;;;;;;;-143.21;78.06;72216.94;5067900;28;20413;-80
2023/10/20 00:09:42;;;;;;;20.33;13.03;;;;;;;-143.21;78.19;72207.03;5064084;28;20212;-80
2023/10/20 00:12:10;;;;;;;16.90;12.20;;;;;;;-143.21;77.91;72193.16;5072511;28;20217;-80
2023/10/20 00:14:37;;;;;;;21.80;12.87;;;;;;;-143.21;77.87;72191.16;5071743;28;20644;-80
2023/10/20 00:17:03;;;;;;;16.83;12.30;;;;;;;-143.21;77.96;72181.25;5072324;28;20205;-80
2023/10/20 00:19:31;;;;;;;24.30;13.13;;;;;;;-143.21;77.53;72179.25;5072073;28;20295;-80
2023/10/20 00:21:58;;;;;;;20.43;12.63;;;;;;;-143.21;77.61;72185.22;5071706;28;20247;-80
2023/10/20 00:24:26;;;;;;;21.03;13.30;;;;;;;-143.21;77.13;72171.34;5071675;28;20201;-81
2023/10/20 00:26:53;;;;;;;19.90;12.83;;;;;;;-143.21;76.77;72165.38;5072099;28;20198;-81
2023/10/20 00:29:20;;;;;;;19.97;12.97;;;;;;;-143.21;76.78;72165.38;5071703;28;20252;-81
2023/10/20 00:31:47;;;;;;;19.50;13.37;;;;;;;-143.21;76.47;72153.47;5071721;28;20294;-81
2023/10/20 00:34:14;;;;;;;17.43;13.03;;;;;;;-143.21;76.51;72151.50;5071658;28;20660;-81
2023/10/20 00:36:41;;;;;;;20.93;12.87;;;;;;;-143.21;76.22;72141.59;5071211;28;20538;-81
2023/10/20 00:39:08;;;;;;;16.67;12.97;;;;;;;-143.21;76.40;72147.53;5072226;28;20292;-81
2023/10/20 00:41:36;;;;;;;21.00;12.70;;;;;;;-143.21;76.71;72145.56;5071805;28;20193;-80
2023/10/20 00:44:03;;;;;;;23.30;13.27;;;;;;;-143.21;76.58;72147.53;5071503;28;20197;-80
2023/10/20 00:46:30;;;;;;;19.20;13.07;;;;;;;-143.21;76.48;72143.56;5071778;28;20223;-80
2023/10/20 00:48:58;;;;;;;14.80;11.33;;;;;;;-143.21;76.28;72141.59;5071500;28;20289;-80
2023/10/20 00:51:25;;;;;;;18.00;12.20;;;;;;;-143.21;76.33;72149.53;5070930;28;20698;-80
2023/10/20 00:53:53;;;;;;;16.87;12.17;;;;;;;-143.21;76.83;72165.38;5071169;28;20236;-80
2023/10/20 00:56:19;;;;;;;19.37;13.07;;;;;;;-143.21;76.64;72163.41;5071702;28;20205;-80
2023/10/20 00:58:48;;;;;;;16.50;12.40;;;;;;;-143.21;76.61;72171.34;5071202;28;20211;-79
2023/10/20 01:01:15;;;;;;;19.83;12.97;;;;;;;-143.21;76.71;72171.34;5070851;28;20259;-80
2023/10/20 01:03:42;;;;;;;18.33;12.37;;;;;;;-143.21;77.22;72173.31;5070561;28;20220;-79
2023/10/20 01:06:10;;;;;;;17.10;12.00;;;;;;;-143.21;77.20;72175.31;5070510;28;20201;-80
2023/10/20 01:08:37;;;;;;;20.77;14.53;;;;;;;-143.21;77.14;72165.38;5071260;28;20243;-79
2023/10/20 01:11:05;;;;;;;18.90;13.53;;;;;;;-143.21;77.28;72171.34;5070867;28;20213;-80
2023/10/20 01:13:32;;;;;;;20.20;13.47;;;;;;;-143.21;77.10;72167.38;5070799;28;20217;-81
2023/10/20 01:16:00;;;;;;;18.63;13.07;;;;;;;-143.21;76.88;72161.41;5071567;28;20208;-79
2023/10/20 01:18:27;;;;;;;26.07;13.10;;;;;;;-143.21;76.79;72157.44;5071202;28;20185;-79
2023/10/20 01:20:55;;;;;;;21.30;12.57;;;;;;;-143.21;76.63;72167.38;5071397;28;20589;-79
2023/10/20 01:23:22;;;;;;;18.33;12.10;;;;;;;-143.21;77.08;72169.34;5070864;28;20193;-79
2023/10/20 01:25:50;;;;;;;15.23;12.23;;;;;;;-143.21;76.85;72167.38;5071170;28;20201;-79
2023/10/20 01:28:19;;;;;;;17.93;12.23;;;;;;;-143.21;77.24;72169.34;5072992;28;20204;-80
2023/10/20 01:30:45;;;;;;;19.20;12.07;;;;;;;-143.21;77.51;72173.31;5074705;28;20237;-79
2023/10/20 01:33:12;;;;;;;16.47;11.47;;;;;;;-143.21;78.52;72185.22;5074771;28;20221;-79
2023/10/20 01:35:39;;;;;;;19.63;11.43;;;;;;;-143.21;77.93;72189.19;5074853;28;20197;-80
2023/10/20 01:38:06;;;;;;;15.40;11.00;;;;;;;-143.21;78.84;72211.00;5075032;28;20186;-80
2023/10/20 01:40:33;;;;;;;17.97;11.50;;;;;;;-143.21;80.60;72242.72;5074935;28;20205;-80
2023/10/20 01:43:01;;;;;;;19.07;11.67;;;;;;;-143.21;81.63;72242.72;5061192;28;20231;-79
2023/10/20 01:45:28;;;;;;;14.43;11.37;;;;;;;-143.21;82.15;72224.88;5054306;28;20190;-79
2023/10/20 01:47:55;;;;;;;17.70;11.97;;;;;;;-143.21;81.84;72216.94;5062451;28;20207;-78
2023/10/20 01:50:21;;;;;;;18.20;12.97;;;;;;;-143.21;81.19;72207.03;5074606;28;20195;-79
2023/10/20 01:52:48;;;;;;;20.37;13.10;;;;;;;-143.21;80.58;72211.00;5074202;28;20217;-80
2023/10/20 01:55:15;;;;;;;17.43;12.60;;;;;;;-143.21;80.08;72203.06;5074806;28;20205;-80
2023/10/20 01:57:42;;;;;;;20.53;12.97;;;;;;;-143.21;79.80;72211.00;5074053;28;20193;-79
2023/10/20 02:00:13;;;;;;;17.63;12.40;;;;;;;-143.21;79.79;72216.94;5070580;28;20668;-79
2023/10/20 02:02:40;;;;;;;21.57;12.47;;;;;;;-143.21;79.87;72216.94;5074313;28;20651;-79
2023/10/20 02:05:09;;;;;;;16.47;12.17;;;;;;;-143.21;79.44;72214.97;5074428;28;20193;-79
2023/10/20 02:07:36;;;;;;;18.10;11.90;;;;;;;-143.21;79.53;72211.00;5074159;28;20282;-79
2023/10/20 02:10:03;;;;;;;17.83;12.30;;;;;;;-143.21;79.03;72211.00;5074054;28;20205;-80
2023/10/20 02:12:31;;;;;;;19.50;14.27;;;;;;;-143.21;78.66;72205.03;5074220;28;20217;-80
2023/10/20 02:14:58;;;;;;;19.37;13.07;;;;;;;-143.21;78.95;72214.97;5074102;28;20718;-80
2023/10/20 02:17:26;;;;;;;19.70;13.50;;;;;;;-143.21;78.46;72189.19;5073779;28;20581;-80
2023/10/20 02:19:53;;;;;;;18.83;12.67;;;;;;;-143.21;78.32;72191.16;5073926;28;20218;-81
2023/10/20 02:22:19;;;;;;;17.70;12.97;;;;;;;-143.21;78.37;72195.13;5073667;28;20197;-81
2023/10/20 02:24:46;;;;;;;16.07;11.90;;;;;;;-143.21;77.69;72191.16;5073508;28;20262;-81
2023/10/20 02:27:13;;;;;;;20.77;13.63;;;;;;;-143.21;77.27;72191.16;5073903;28;20247;-81
2023/10/20 02:29:40;;;;;;;20.50;13.73;;;;;;;-143.21;77.69;72193.16;5072880;28;20233;-81
2023/10/20 02:32:07;;;;;;;22.30;14.43;;;;;;;-143.21;77.90;72214.97;5073616;28;20209;-80
2023/10/20 02:34:35;;;;;;;19.97;14.53;;;;;;;-143.21;78.29;72218.94;5073386;28;20208;-80
2023/10/20 02:37:02;;;;;;;20.90;13.47;;;;;;;-143.21;78.47;72212.97;5072870;28;20216;-80
2023/10/20 02:39:29;;;;;;;21.37;13.37;;;;;;;-143.21;77.87;72211.00;5072211;28;20197;-80
2023/10/20 02:41:57;;;;;;;21.40;14.37;;;;;;;-143.21;77.77;72220.91;5073829;28;20284;-80
2023/10/20 02:44:27;;;;;;;22.80;15.37;;;;;;;-143.21;77.74;72222.91;5073769;28;20202;-80
2023/10/20 02:46:54;;;;;;;22.73;14.30;;;;;;;-143.21;78.31;72238.75;5073678;28;20206;-82
2023/10/20 02:49:21;;;;;;;19.60;13.60;;;;;;;-143.21;78.58;72234.78;5073489;28;20288;-80
2023/10/20 02:51:49;;;;;;;19.90;13.10;;;;;;;-143.21;78.27;72244.72;5073494;28;20197;-80
2023/10/20 02:54:16;;;;;;;20.97;13.70;;;;;;;-143.21;78.34;72240.75;5073022;28;20227;-77
2023/10/20 02:56:44;;;;;;;24.53;14.67;;;;;;;-143.21;78.17;72246.69;5072231;28;20207;-77
2023/10/20 02:59:12;;;;;;;21.23;13.70;;;;;;;-143.21;78.53;72242.72;5072760;28;20197;-78
2023/10/20 03:01:39;;;;;;;23.37;15.30;;;;;;;-143.21;78.43;72250.66;5072590;28;20679;-78
2023/10/20 03:04:07;;;;;;;25.30;14.93;;;;;;;-143.21;78.50;72260.56;5073033;28;20284;-78
2023/10/20 03:06:34;;;;;;;23.63;15.80;;;;;;;-143.21;78.96;72256.59;5072843;28;20691;-77
2023/10/20 03:09:03;;;;;;;23.10;15.23;;;;;;;-143.21;77.66;72260.56;5073077;28;20190;-78
2023/10/20 03:11:29;;;;;;;27.10;15.23;;;;;;;-143.21;78.04;72292.31;5072914;28;20638;-79
2023/10/20 03:13:56;;;;;;;25.97;16.50;;;;;;;-143.21;79.05;72320.06;5052680;28;20226;-78
2023/10/20 03:16:23;;;;;;;23.30;15.97;;;;;;;-143.21;79.95;72324.03;5052688;28;20344;-78
2023/10/20 03:18:50;;;;;;;28.93;16.50;;;;;;;-143.21;81.19;72322.06;5052488;28;20198;-78
2023/10/20 03:21:18;;;;;;;23.43;16.17;;;;;;;-143.21;80.89;72306.19;5052760;28;20201;-78
2023/10/20 03:23:44;;;;;;;28.93;17.93;;;;;;;-143.21;80.94;72302.22;5056937;28;20290;-78
2023/10/20 03:26:13;;;;;;;28.43;16.73;;;;;;;-143.21;80.40;72298.25;5072930;28;20201;-79
2023/10/20 03:28:40;;;;;;;30.77;18.57;;;;;;;-143.21;80.79;72290.31;5072275;28;20193;-78
2023/10/20 03:31:08;;;;;;;25.80;17.23;;;;;;;-143.21;80.31;72288.34;5071693;28;20233;-78
2023/10/20 03:33:35;;;;;;;28.20;17.50;;;;;;;-143.21;80.08;72278.41;5072282;28;20278;-78
2023/10/20 03:36:03;;;;;;;27.30;17.60;;;;;;;-143.21;79.90;72288.34;5072814;28;20193;-80
2023/10/20 03:38:30;;;;;;;28.97;17.83;;;;;;;-143.21;79.68;72286.34;5072263;28;20193;-80
2023/10/20 03:41:06;;;;;;;29.70;20.03;;;;;;;-143.21;79.79;72298.25;5072493;28;20201;-79
2023/10/20 03:43:35;;;;;;;32.67;19.87;;;;;;;-143.21;80.08;72280.41;5062712;28;20185;-79
2023/10/20 03:46:03;;;;;;;34.53;20.67;;;;;;;-143.21;80.05;72282.38;5054956;28;20274;-80
2023/10/20 03:48:31;;;;;;;29.67;19.60;;;;;;;-143.21;80.08;72270.50;5052067;28;20209;-79
2023/10/20 03:50:58;;;;;;;33.17;19.17;;;;;;;-143.21;80.10;72262.56;5051948;28;20216;-80
2023/10/20 03:53:28;;;;;;;36.57;19.60;;;;;;;-143.21;79.85;72258.59;5062233;28;20225;-79
2023/10/20 03:56:00;;;;;;;40.63;25.17;;;;;;;-143.21;79.34;72254.63;5057740;28;20619;-79
2023/10/20 03:58:28;;;;;;;47.40;27.20;;;;;;;-143.21;78.91;72252.63;5052448;28;20283;-80
2023/10/20 04:00:57;;;;;;;48.77;30.20;;;;;;;-143.21;79.17;72266.53;5057007;28;20229;-80
2023/10/20 04:03:25;;;;;;;49.40;28.73;;;;;;;-143.21;79.34;72272.47;5071483;28;20255;-80
2023/10/20 04:05:52;;;;;;;47.00;27.20;;;;;;;-143.21;79.80;72278.41;5071489;28;20292;-80
2023/10/20 04:08:19;;;;;;;46.07;26.83;;;;;;;-143.21;79.62;72268.50;5070818;28;20206;-81
2023/10/20 04:10:46;;;;;;;42.97;28.03;;;;;;;-143.21;79.59;72268.50;5070977;28;20193;-81
2023/10/20 04:13:13;;;;;;;49.37;29.07;;;;;;;-143.21;79.71;72270.50;5071203;28;20250;-80
2023/10/20 04:15:42;;;;;;;50.27;30.00;;;;;;;-143.21;79.63;72282.38;5071261;28;20193;-80
2023/10/20 04:18:13;;;;;;;54.57;31.13;;;;;;;-143.21;79.71;72284.38;5071982;28;20636;-80
2023/10/20 04:20:41;;;;;;;55.87;32.30;;;;;;;-143.21;79.13;72288.34;5071393;28;20201;-85
2023/10/20 04:23:08;;;;;;;56.93;32.47;;;;;;;-143.21;78.91;72290.31;5071533;28;20204;-78
2023/10/20 04:25:39;;;;;;;51.73;31.20;;;;;;;-143.21;78.69;72294.28;5070898;28;20209;-77
2023/10/20 04:28:14;;;;;;;61.83;33.17;;;;;;;-143.21;78.87;72304.19;5070774;28;20247;-76
2023/10/20 04:41:55;;;;;;;47.03;30.10;;;;;;;-143.21;79.92;72369.66;5070679;28;20585;-77
2023/10/20 04:58:42;;;;;;;50.93;29.87;;;;;;;-143.21;81.76;72335.94;5070429;28;20708;-79
2023/10/20 05:01:16;;;;;;;56.27;31.70;;;;;;;-143.21;81.37;72335.94;5070968;28;20201;-78
2023/10/20 05:03:46;;;;;;;56.17;30.03;;;;;;;-143.21;80.50;72331.97;5067316;28;20597;-79
2023/10/20 05:06:24;;;;;;;48.33;28.23;;;;;;;-143.21;80.33;72320.06;5066197;28;20233;-79
2023/10/20 05:08:51;;;;;;;52.30;29.03;;;;;;;-143.21;80.60;72329.97;5067685;28;20205;-80
2023/10/20 05:11:18;;;;;;;51.20;30.57;;;;;;;-143.21;80.69;72326.00;5068037;28;20237;-80
2023/10/20 05:13:45;;;;;;;58.83;29.43;;;;;;;-143.21;81.16;72326.00;5068337;28;20220;-80
2023/10/20 05:16:13;;;;;;;47.20;31.10;;;;;;;-143.21;80.47;72322.06;5067747;28;20227;-80
2023/10/20 05:18:40;;;;;;;53.07;32.33;;;;;;;-143.21;81.02;72322.06;5068072;28;20240;-80
2023/10/20 05:21:11;;;;;;;52.80;30.07;;;;;;;-143.21;80.68;72322.06;5067609;28;20209;-80
2023/10/20 05:23:41;;;;;;;56.30;33.27;;;;;;;-143.21;80.25;72316.09;5068615;28;20205;-81
2023/10/20 05:26:10;;;;;;;63.30;33.27;;;;;;;-143.21;80.67;72331.97;5068355;28;20217;-82
2023/10/20 05:28:36;;;;;;;61.83;33.30;;;;;;;-143.21;80.23;72324.03;5067865;28;20284;-81
2023/10/20 05:31:03;;;;;;;63.40;33.80;;;;;;;-143.21;80.81;72331.97;5068049;28;20229;-81
2023/10/20 05:33:30;;;;;;;70.30;37.17;;;;;;;-143.21;80.84;72331.97;5068079;28;20232;-81
2023/10/20 05:36:01;;;;;;;69.13;34.17;;;;;;;-143.21;80.72;72326.00;5067974;28;20241;-80
2023/10/20 05:38:28;;;;;;;55.30;34.57;;;;;;;-143.21;80.55;72324.03;5068572;28;20289;-81
2023/10/20 05:41:01;;;;;;;57.13;31.87;;;;;;;-143.21;80.49;72318.09;5067353;28;20297;-78
2023/10/20 05:43:30;;;;;;;58.53;31.87;;;;;;;-143.21;80.45;72316.09;5065797;28;20205;-79
2023/10/20 05:45:56;;;;;;;55.60;30.00;;;;;;;-143.21;80.18;72304.19;5067162;28;20388;-79
2023/10/20 05:48:23;;;;;;;52.60;28.47;;;;;;;-143.21;80.52;72298.25;5067556;28;20725;-80
2023/10/20 05:50:55;;;;;;;45.97;26.33;;;;;;;-143.21;80.69;72294.28;5068277;28;20210;-79
2023/10/20 05:53:22;;;;;;;47.17;25.90;;;;;;;-143.21;80.79;72288.34;5065591;28;20743;-79
2023/10/20 05:55:49;;;;;;;41.80;23.37;;;;;;;-143.21;80.89;72284.38;5065114;28;20198;-79
2023/10/20 05:58:17;;;;;;;39.03;23.13;;;;;;;-143.21;80.52;72280.41;5067556;28;20209;-78
2023/10/20 06:00:44;;;;;;;44.53;21.70;;;;;;;-143.21;80.41;72288.34;5067230;28;20209;-79
2023/10/20 06:03:11;;;;;;;47.37;21.73;;;;;;;-143.21;80.24;72306.19;5067470;28;20212;-80
2023/10/20 06:05:38;;;;;;;44.93;21.80;;;;;;;-143.21;80.65;72333.94;5068166;28;20201;-79
2023/10/20 06:08:06;;;;;;;35.10;21.40;;;;;;;-143.21;81.79;72326.00;5067364;28;20210;-79
2023/10/20 06:10:33;;;;;;;49.30;21.27;;;;;;;-143.21;82.08;72312.13;5067994;28;20210;-79
2023/10/20 06:12:59;;;;;;;43.27;22.43;;;;;;;-143.21;82.91;72306.19;5067340;28;20193;-79
2023/10/20 06:15:28;;;;;;;41.83;23.07;;;;;;;-143.21;82.63;72292.31;5071579;28;20209;-79
2023/10/20 06:17:57;;;;;;;40.50;21.93;;;;;;;-143.21;82.52;72284.38;5070583;28;20214;-79
2023/10/20 06:20:24;;;;;;;34.67;21.37;;;;;;;-143.21;81.79;72258.59;5068239;28;20197;-78
2023/10/20 06:22:50;;;;;;;39.67;22.50;;;;;;;-143.21;81.42;72240.75;5071265;28;20208;-79
2023/10/20 06:25:17;;;;;;;34.23;21.73;;;;;;;-143.21;81.12;72224.88;5070887;28;20616;-79
2023/10/20 06:27:45;;;;;;;45.60;21.63;;;;;;;-143.21;81.01;72214.97;5070883;28;20570;-79
2023/10/20 06:30:19;;;;;;;37.27;21.40;;;;;;;-143.21;80.60;72197.13;5070249;28;20237;-79
2023/10/20 06:32:56;;;;;;;44.30;19.93;;;;;;;-143.21;80.00;72179.25;5071124;28;20208;-79
2023/10/20 06:35:32;;;;;;;43.50;21.57;;;;;;;-143.21;80.14;72159.44;5070573;28;20205;-80
2023/10/20 06:38:11;;;;;;;41.67;20.33;;;;;;;-143.21;80.16;72155.47;5068322;28;20209;-79
2023/10/20 06:40:39;;;;;;;37.33;19.47;;;;;;;-143.21;79.98;72131.69;5070426;28;20260;-79
2023/10/20 06:43:06;;;;;;;44.90;21.27;;;;;;;-143.21;79.95;72135.63;5070241;28;20201;-78
2023/10/20 06:45:34;;;;;;;37.97;19.53;;;;;;;-143.21;79.82;72119.78;5070857;28;20194;-79
2023/10/20 06:48:02;;;;;;;38.73;19.07;;;;;;;-143.21;79.74;72111.84;5070356;28;20205;-79
2023/10/20 06:50:28;;;;;;;43.47;21.37;;;;;;;-143.21;79.65;72099.94;5069991;28;20209;-79
2023/10/20 06:52:55;;;;;;;38.30;20.17;;;;;;;-143.21;79.27;72092.00;5070380;28;20577;-79
2023/10/20 06:55:22;;;;;;;42.60;20.27;;;;;;;-143.21;77.64;72064.25;5070366;28;20221;-80
2023/10/20 06:57:49;;;;;;;34.20;20.13;;;;;;;-143.21;77.39;72046.41;5067932;28;20227;-85
2023/10/20 07:00:17;;;;;;;34.23;20.00;;;;;;;-143.21;77.11;72036.50;5071642;28;20197;-84
2023/10/20 07:02:44;;;;;;;36.83;19.57;;;;;;;-143.21;76.66;72020.63;5072912;28;20591;-83
2023/10/20 07:05:17;;;;;;;34.70;18.90;;;;;;;-143.21;76.69;72014.69;5070058;28;20209;-84
2023/10/20 07:07:44;;;;;;;30.17;19.93;;;;;;;-143.21;76.38;72002.78;5069511;28;20233;-82
2023/10/20 07:10:11;;;;;;;31.63;19.40;;;;;;;-143.21;76.02;71990.88;5069336;28;20240;-85
2023/10/20 07:12:38;;;;;;;31.53;19.60;;;;;;;-143.21;76.06;71971.06;5067503;28;20194;-86
2023/10/20 07:15:06;;;;;;;31.53;17.43;;;;;;;-143.21;76.04;71963.13;5068056;28;20275;-85
2023/10/20 07:17:34;;;;;;;32.40;19.33;;;;;;;-143.21;75.01;71933.38;5068730;28;20271;-85
2023/10/20 07:20:04;;;;;;;31.80;19.67;;;;;;;-143.21;74.48;71931.38;5069800;28;20592;-86
2023/10/20 07:22:33;;;;;;;28.07;18.83;;;;;;;-143.21;73.77;71927.44;5070457;28;20193;-86
2023/10/20 07:24:58;;;;;;;34.07;19.67;;;;;;;-143.21;74.49;71951.22;5070361;28;20200;-87
2023/10/20 07:27:31;;;;;;;30.80;19.13;;;;;;;-143.21;75.55;71953.19;5070788;28;20197;-86
2023/10/20 07:30:01;;;;;;;30.87;18.53;;;;;;;-143.21;76.04;71949.25;5070389;28;20294;-87
2023/10/20 07:32:28;;;;;;;31.87;18.97;;;;;;;-143.21;75.82;71945.28;5071440;28;20208;-86
2023/10/20 07:34:55;;;;;;;33.03;18.50;;;;;;;-143.21;74.52;71925.44;5070587;28;20312;-85
2023/10/20 07:37:22;;;;;;;31.00;18.47;;;;;;;-143.21;74.14;71911.56;5067874;28;20215;-85
2023/10/20 07:39:52;;;;;;;30.37;19.90;;;;;;;-143.21;72.88;71897.69;5067551;28;20203;-86
2023/10/20 07:42:21;;;;;;;31.93;19.40;;;;;;;-143.21;73.12;71885.78;5070651;28;20205;-87
2023/10/20 07:44:48;;;;;;;33.93;19.80;;;;;;;-143.21;73.05;71873.88;5068323;28;20660;-78
2023/10/20 07:47:15;;;;;;;32.27;20.77;;;;;;;-143.21;72.62;71860.00;5067347;28;20213;-78
2023/10/20 07:49:41;;;;;;;38.57;21.37;;;;;;;-143.21;72.70;71860.00;5067747;28;20212;-77
2023/10/20 07:52:08;;;;;;;33.47;20.67;;;;;;;-143.21;72.09;71844.16;5066643;28;20932;-77
2023/10/20 07:54:35;;;;;;;29.93;19.97;;;;;;;-143.21;71.93;71828.28;5067367;28;20727;-78
2023/10/20 07:57:07;;;;;;;30.67;19.93;;;;;;;-143.21;71.27;71816.38;5067607;28;20671;-76
2023/10/20 07:59:46;;;;;;;30.67;20.10;;;;;;;-143.21;70.43;71796.56;5068158;28;20193;-78
2023/10/20 08:02:17;;;;;;;27.90;18.70;;;;;;;-143.21;70.00;71810.44;5068450;28;20201;-79
2023/10/20 08:04:44;;;;;;;27.73;19.03;;;;;;;-143.21;70.34;71822.34;5069621;28;20227;-79
2023/10/20 08:07:10;;;;;;;34.53;19.80;;;;;;;-143.21;70.19;71842.16;5083521;28;20581;-78
2023/10/20 08:09:38;;;;;;;34.10;21.03;;;;;;;-143.21;72.44;71850.09;5072169;28;20194;-84
2023/10/20 08:12:07;;;;;;;29.60;19.20;;;;;;;-143.21;72.46;71834.22;5071685;28;20207;-78
2023/10/20 08:14:34;;;;;;;30.73;17.23;;;;;;;-143.21;72.02;71810.44;5071487;28;20278;-78
2023/10/20 08:17:03;;;;;;;31.20;17.47;;;;;;;-143.21;71.97;71796.56;5071685;28;20201;-77
2023/10/20 08:19:35;;;;;;;26.37;16.47;;;;;;;-143.21;71.15;71766.81;5071119;28;20194;-78
2023/10/20 08:22:03;;;;;;;29.33;15.80;;;;;;;-143.21;70.12;71746.97;5071640;28;20229;-78
2023/10/20 08:24:35;;;;;;;26.83;15.50;;;;;;;-143.21;69.44;71725.16;5071173;28;20239;-78
2023/10/20 08:27:02;;;;;;;30.73;15.37;;;;;;;-143.21;68.94;71705.34;5071275;28;20196;-78
2023/10/20 08:29:30;;;;;;;28.57;14.97;;;;;;;-143.21;67.97;71683.53;5069200;28;20233;-79
2023/10/20 08:31:57;;;;;;;20.67;13.53;;;;;;;-143.21;66.75;71651.81;5071099;28;20190;-77
2023/10/20 08:34:24;;;;;;;26.80;14.70;;;;;;;-143.21;65.45;71628.00;5071056;28;20221;-78
2023/10/20 08:36:51;;;;;;;22.63;14.70;;;;;;;-143.21;65.33;71626.03;5070693;28;20202;-80
2023/10/20 08:39:19;;;;;;;26.97;16.10;;;;;;;-143.21;66.33;71637.94;5071498;28;20190;-77
2023/10/20 08:41:49;;;;;;;21.87;13.10;;;;;;;-143.21;66.32;71628.00;5070757;28;20304;-77
2023/10/20 08:44:19;;;;;;;21.67;11.90;;;;;;;-143.21;65.15;71580.44;5071731;28;20178;-77
2023/10/20 08:46:49;;;;;;;22.70;11.90;;;;;;;-143.21;63.90;71530.88;5071249;28;20196;-78
2023/10/20 08:49:18;;;;;;;20.27;12.33;;;;;;;-143.21;62.78;71491.22;5071131;28;20201;-77
2023/10/20 08:51:47;;;;;;;23.07;12.00;;;;;;;-143.21;61.52;71445.59;5070432;28;20668;-78
2023/10/20 08:54:19;;;;;;;26.45;11.23;;;;;;;-143.21;60.89;71392.06;5070705;28;20221;-78
2023/10/20 08:56:46;;;;;;;26.25;11.75;;;;;;;-143.21;59.79;71346.47;5063042;28;20549;-78
2023/10/20 08:59:16;;;;;;;22.88;10.38;;;;;;;-143.21;59.12;71302.84;5071348;28;20185;-79
2023/10/20 09:01:44;;;;;;;25.90;11.35;;;;;;;-143.21;58.06;71273.13;5071015;28;20201;-78
2023/10/20 09:04:22;;;;;;;24.00;11.18;;;;;;;-143.21;57.79;71290.97;5071042;28;20641;-78
2023/10/20 09:06:51;;;;;;;21.75;11.50;;;;;;;-143.21;58.66;71318.72;5071368;28;20568;-79
2023/10/20 09:09:19;;;;;;;19.23;10.73;;;;;;;-143.21;58.60;71292.94;5070814;28;20193;-78
2023/10/20 09:11:49;;;;;;;17.63;10.80;;;;;;;-143.21;57.79;71259.25;5070524;28;20198;-79
2023/10/20 09:14:16;;;;;;;19.00;11.57;;;;;;;-143.21;57.01;71251.31;5071038;28;20308;-78
2023/10/20 09:17:05;;;;;;;22.23;11.68;;;;;;;-143.21;57.03;71241.41;5070311;28;20185;-83
2023/10/20 09:19:35;;;;;;;24.52;11.98;;;;;;;-143.21;57.06;71237.44;5063150;28;20283;-82
2023/10/20 09:22:02;;;;;;;24.17;12.60;;;;;;;-143.21;57.16;71243.38;5071204;28;20189;-82
2023/10/20 09:24:31;;;;;;;21.30;12.02;;;;;;;-143.21;57.07;71251.31;5071379;28;20209;-82
2023/10/20 09:26:59;;;;;;;21.27;12.13;;;;;;;-143.21;57.41;71261.22;5070824;28;20197;-81
2023/10/20 09:29:29;;;;;;;19.35;11.88;;;;;;;-143.21;57.60;71251.31;5070821;28;20237;-82
2023/10/20 09:31:59;;;;;;;18.85;11.55;;;;;;;-143.21;57.82;71253.28;5071254;28;20204;-81
2023/10/20 09:34:27;;;;;;;20.92;12.07;;;;;;;-143.21;57.59;71245.38;5070963;28;20696;-82
2023/10/20 09:36:56;;;;;;;19.17;12.25;;;;;;;-143.21;57.31;71243.38;5070827;28;20661;-81
2023/10/20 09:39:34;;;;;;;25.08;11.82;;;;;;;-143.21;57.42;71243.38;5071432;28;20245;-81
2023/10/20 09:42:06;;;;;;;24.92;11.05;;;;;;;-143.21;57.24;71237.44;5071431;28;20197;-82
2023/10/20 09:44:40;;;;;;;23.27;11.40;;;;;;;-143.21;57.24;71205.72;5063881;28;20177;-82
2023/10/20 09:47:19;;;;;;;24.98;11.25;;;;;;;-143.21;56.51;71140.28;5070979;28;20209;-82
2023/10/20 09:49:51;;;;;;;22.52;11.55;;;;;;;-143.21;55.41;71112.53;5073787;28;20209;-82
2023/10/20 09:52:20;;;;;;;20.83;11.60;;;;;;;-143.21;56.47;71168.06;5074274;28;20200;-82
2023/10/20 09:54:50;;;;;;;24.85;12.63;;;;;;;-143.21;56.61;71177.97;5074063;28;20302;-81
2023/10/20 09:57:22;;;;;;;27.02;12.32;;;;;;;-143.21;56.14;71144.25;5074590;28;20244;-81
2023/10/20 09:59:53;;;;;;;25.02;12.85;;;;;;;-143.21;55.85;71102.63;5074491;28;20675;-81
2023/10/20 10:02:27;;;;;;;27.48;13.32;;;;;;;-143.21;54.69;71049.09;5071457;28;20220;-83
2023/10/20 10:04:54;;;;;;;20.55;11.40;;;;;;;-143.21;53.88;70995.56;5053806;28;20737;-82
2023/10/20 10:07:30;;;;;;;31.05;11.60;;;;;;;-143.21;53.08;70928.19;5054719;28;20730;-80
2023/10/20 10:10:02;;;;;;;21.15;11.15;;;;;;;-143.21;52.00;70860.78;5065674;28;20196;-80
2023/10/20 10:12:30;;;;;;;19.10;11.30;;;;;;;-143.21;50.93;70805.28;5074774;28;20236;-82
2023/10/20 10:15:01;;;;;;;17.17;11.40;;;;;;;-143.21;49.89;70769.59;5074025;28;20630;-80
2023/10/20 10:17:28;;;;;;;20.17;11.73;;;;;;;-143.21;48.82;70767.63;5074192;28;20547;-83
2023/10/20 10:20:07;;;;;;;22.13;11.38;;;;;;;-143.21;50.74;70860.78;5073835;28;20594;-80
2023/10/20 10:22:42;;;;;;;18.95;11.38;;;;;;;-143.21;52.17;70946.03;5073443;28;20201;-79
2023/10/20 10:25:09;;;;;;;22.67;11.57;;;;;;;-143.21;52.80;70965.84;5074111;28;20197;-79
2023/10/20 10:27:36;;;;;;;20.77;11.63;;;;;;;-143.21;52.98;70951.97;5073706;28;20208;-78
2023/10/20 10:30:11;;;;;;;25.15;11.13;;;;;;;-143.21;52.30;70908.34;5073933;28;20320;-80
2023/10/20 10:32:47;;;;;;;14.68;10.38;;;;;;;-143.21;51.19;70823.13;5073573;28;20177;-79
2023/10/20 10:35:17;;;;;;;20.88;9.55;;;;;;;-143.21;48.56;70749.78;5058249;28;20225;-77
2023/10/20 10:37:48;;;;;;;17.08;8.20;;;;;;;-143.21;47.53;70656.59;5073528;28;20282;-79
2023/10/20 10:43:30;;;;;;;22.98;8.40;;;;;;;-143.21;44.06;70456.41;5071880;28;20197;-81
2023/10/20 10:45:57;;;;;;;16.90;7.43;;;;;;;-143.21;42.59;70357.31;5073279;28;20280;-78
2023/10/20 10:48:27;;;;;;;17.15;7.07;;;;;;;-143.21;41.11;70280.00;5072847;28;20755;-77
2023/10/20 10:50:54;;;;;;;16.80;7.15;;;;;;;-143.21;39.87;70204.69;5073318;28;20220;-79
2023/10/20 10:53:22;;;;;;;17.50;6.68;;;;;;;-143.21;38.90;70155.16;5073663;28;20194;-80
2023/10/20 10:55:51;;;;;;;17.08;6.40;;;;;;;-143.21;37.49;70093.72;5073233;28;20221;-80
2023/10/20 10:58:19;;;;;;;16.67;6.43;;;;;;;-143.21;36.92;70050.09;5073690;28;20208;-80
2023/10/20 11:00:46;;;;;;;19.13;5.50;;;;;;;-143.21;35.96;70002.53;5072180;28;20197;-81
2023/10/20 11:03:23;;;;;;;13.68;5.55;;;;;;;-143.21;35.37;69956.97;5073134;28;20197;-80
2023/10/20 11:05:50;;;;;;;15.10;5.68;;;;;;;-143.21;34.42;69895.53;5073030;28;20204;-81
2023/10/20 11:08:19;;;;;;;21.20;6.38;;;;;;;-143.21;33.66;69863.81;5073246;28;20193;-81
2023/10/20 11:10:49;;;;;;;15.95;5.57;;;;;;;-143.21;33.19;69828.16;5073414;28;20201;-81
2023/10/20 11:13:17;;;;;;;17.35;5.70;;;;;;;-143.21;32.43;69798.44;5072941;28;20202;-81
2023/10/20 11:15:49;;;;;;;15.93;5.50;;;;;;;-143.21;32.06;69766.72;5073093;28;20228;-82
2023/10/20 11:18:18;;;;;;;12.32;4.93;;;;;;;-143.21;31.33;69738.97;5073365;28;20185;-82
2023/10/20 11:20:49;;;;;;;17.25;5.32;;;;;;;-143.21;30.80;69719.16;5072969;28;20197;-82
2023/10/20 11:23:19;;;;;;;18.75;5.00;;;;;;;-143.21;30.84;69683.50;5073630;28;20197;-82
2023/10/20 11:25:48;;;;;;;12.02;4.82;;;;;;;-143.21;30.59;69671.59;5073347;28;20272;-82
2023/10/20 11:28:17;;;;;;;17.30;4.72;;;;;;;-143.21;30.01;69665.66;5073647;28;20208;-81
2023/10/20 11:30:45;;;;;;;20.75;4.90;;;;;;;-143.21;30.07;69628.00;5072254;28;20629;-81
2023/10/20 11:33:12;;;;;;;16.35;5.05;;;;;;;-143.21;29.67;69624.03;5072427;28;20204;-81
2023/10/20 11:35:39;;;;;;;14.40;5.38;;;;;;;-143.21;29.76;69618.09;5071883;28;20283;-82
2023/10/20 11:38:06;;;;;;;18.75;5.28;;;;;;;-143.21;29.50;69596.31;5065335;28;20202;-82